Time;durP1;ratioP1;P1;durP2;ratioP2;P2;SDS_P1;SDS_P2;PMS_P1;PMS_P2;Temp;Humidity;BMP_temperature;BMP_pressure;BME280_temperature;BME280_humidity;BME280_pressure;Samples;Min_cycle;Max_cycle;Signal;HPM_P1;HPM_P2
2022/11/22 08:20:33;;;;;;;6.30;1.15;;;7.70;99.90;;;;;;4981982;23;20514;-75
2022/11/22 08:23:00;;;;;;;3.97;1.42;;;7.80;99.90;;;;;;4889110;29;20063;-79
2022/11/22 08:25:27;;;;;;;5.18;1.73;;;7.80;99.90;;;;;;4886236;29;20064;-79
2022/11/22 08:27:54;;;;;;;9.73;2.25;;;7.90;99.90;;;;;;4890227;29;20072;-78
2022/11/22 08:30:20;;;;;;;7.75;2.13;;;7.90;99.90;;;;;;4886322;29;20134;-78
2022/11/22 08:32:47;;;;;;;7.07;1.65;;;7.90;99.90;;;;;;4891036;29;20057;-81
2022/11/22 08:35:14;;;;;;;9.23;1.42;;;7.90;99.90;;;;;;4902116;29;20041;-80
2022/11/22 08:37:40;;;;;;;10.77;1.55;;;8.00;99.90;;;;;;4898302;29;20081;-80
2022/11/22 08:40:08;;;;;;;8.13;1.50;;;8.00;99.90;;;;;;4898537;29;20219;-80
2022/11/22 08:42:34;;;;;;;8.32;1.25;;;8.10;99.90;;;;;;4896904;29;20053;-80
2022/11/22 08:45:01;;;;;;;5.60;1.20;;;8.00;99.90;;;;;;4899725;29;20060;-80
2022/11/22 08:47:28;;;;;;;10.50;1.50;;;8.00;99.90;;;;;;4896168;29;20057;-79
2022/11/22 08:49:55;;;;;;;6.45;1.48;;;8.00;99.90;;;;;;4906685;29;20048;-80
2022/11/22 08:52:21;;;;;;;6.32;1.40;;;8.10;99.90;;;;;;4897917;29;20056;-80
2022/11/22 08:54:48;;;;;;;7.53;1.20;;;8.10;99.90;;;;;;4900617;29;20052;-81
2022/11/22 08:57:15;;;;;;;5.63;1.95;;;8.20;99.90;;;;;;4898468;29;20045;-81
2022/11/22 08:59:41;;;;;;;9.82;1.40;;;8.20;99.90;;;;;;4900691;29;20059;-81
2022/11/22 09:02:09;;;;;;;4.70;1.02;;;8.20;99.90;;;;;;4900043;29;20060;-79
2022/11/22 09:04:36;;;;;;;8.43;1.92;;;8.30;99.90;;;;;;4902376;29;20048;-80
2022/11/22 09:07:03;;;;;;;7.10;1.40;;;8.30;99.90;;;;;;4896354;29;20116;-80
2022/11/22 09:09:49;;;;;;;7.07;1.63;;;8.30;99.90;;;;;;4895419;29;20049;-80
2022/11/22 09:12:16;;;;;;;7.50;1.90;;;8.30;99.90;;;;;;4900054;29;20131;-80
2022/11/22 09:14:43;;;;;;;11.23;2.22;;;8.40;99.90;;;;;;4904331;29;20483;-79
2022/11/22 09:17:10;;;;;;;8.10;1.70;;;8.40;99.90;;;;;;4895082;29;20131;-79
2022/11/22 09:19:43;;;;;;;7.88;1.20;;;8.40;99.90;;;;;;4894645;29;20049;-78
2022/11/22 09:22:10;;;;;;;9.07;1.98;;;8.40;99.90;;;;;;4855439;29;1256471;-80
2022/11/22 09:24:36;;;;;;;7.18;1.52;;;8.40;99.90;;;;;;4897927;29;20049;-79
2022/11/22 09:27:03;;;;;;;10.18;2.33;;;8.40;99.90;;;;;;4900351;29;20552;-78
2022/11/22 09:29:30;;;;;;;4.88;1.33;;;8.40;99.90;;;;;;4898324;29;20125;-80
2022/11/22 09:31:57;;;;;;;10.35;1.55;;;8.50;99.90;;;;;;4898913;29;20056;-79
2022/11/22 09:34:24;;;;;;;2.80;0.85;;;8.50;99.90;;;;;;4895897;29;20442;-77
2022/11/22 09:36:50;;;;;;;5.40;1.60;;;8.50;99.90;;;;;;4895139;29;20423;-79
2022/11/22 09:39:17;;;;;;;5.35;1.17;;;8.50;99.90;;;;;;4891361;29;20044;-75
2022/11/22 09:42:24;;;;;;;8.68;1.85;;;8.50;99.90;;;;;;4891477;29;20051;-77
2022/11/22 09:45:05;;;;;;;6.05;2.40;;;8.50;99.90;;;;;;4892182;29;20048;-76
2022/11/22 09:47:50;;;;;;;7.70;1.80;;;8.50;99.90;;;;;;4890837;29;20243;-77
2022/11/22 09:50:32;;;;;;;5.40;1.85;;;8.50;99.90;;;;;;4891423;29;20056;-78
2022/11/22 09:53:09;;;;;;;5.15;1.42;;;8.50;99.90;;;;;;4894311;29;20056;-77
2022/11/22 09:55:40;;;;;;;6.75;1.20;;;8.40;99.90;;;;;;4887978;29;20045;-78
2022/11/22 09:58:29;;;;;;;5.63;1.88;;;8.40;99.90;;;;;;4885845;29;20048;-77
2022/11/22 10:01:38;;;;;;;6.53;1.52;;;8.50;99.90;;;;;;4897011;29;20139;-78
2022/11/22 10:04:13;;;;;;;6.45;1.58;;;8.50;99.90;;;;;;4882244;29;20128;-78
2022/11/22 10:06:45;;;;;;;10.77;2.13;;;8.40;99.90;;;;;;4889562;29;20599;-77
2022/11/22 10:09:35;;;;;;;4.47;2.13;;;8.50;99.90;;;;;;4892981;29;20045;-76
2022/11/22 10:12:23;;;;;;;11.50;1.92;;;8.50;99.90;;;;;;4889514;29;20140;-78
2022/11/22 10:14:59;;;;;;;4.53;1.27;;;8.50;99.90;;;;;;4891169;29;20052;-77
2022/11/22 10:17:50;;;;;;;2.53;1.00;;;8.60;99.90;;;;;;4893158;29;20128;-78
2022/11/22 10:20:25;;;;;;;5.80;0.95;;;8.60;99.90;;;;;;4885811;29;20071;-79
2022/11/22 10:22:52;;;;;;;3.38;0.82;;;8.60;99.90;;;;;;4891120;29;20083;-78
2022/11/22 10:25:23;;;;;;;3.30;1.10;;;8.60;99.90;;;;;;4893839;29;20072;-78
2022/11/22 10:27:57;;;;;;;4.07;1.40;;;8.60;99.90;;;;;;4893600;29;20143;-79
2022/11/22 10:30:33;;;;;;;2.40;1.20;;;8.60;99.90;;;;;;4892830;29;20510;-78
2022/11/22 10:33:34;;;;;;;2.47;0.57;;;8.70;99.90;;;;;;4893462;29;20056;-77
2022/11/22 10:36:20;;;;;;;2.92;0.90;;;8.70;99.90;;;;;;4889376;29;20052;-79
2022/11/22 10:38:54;;;;;;;;;;;8.80;99.90;;;;;;4892283;29;20403;-76
2022/11/22 10:41:39;;;;;;;3.10;1.50;;;8.80;99.90;;;;;;4891997;29;19923;-77
2022/11/22 10:44:16;;;;;;;4.40;1.58;;;8.90;99.90;;;;;;4892142;29;20059;-79
2022/11/22 10:46:46;;;;;;;3.63;1.17;;;8.90;99.90;;;;;;4888066;29;20478;-79
2022/11/22 10:49:40;;;;;;;4.45;1.10;;;9.00;99.90;;;;;;4895696;29;20045;-79
2022/11/22 10:52:15;;;;;;;1.50;0.90;;;9.10;99.90;;;;;;4891000;29;20611;-82
2022/11/22 10:55:02;;;;;;;3.13;0.93;;;9.10;99.90;;;;;;4892654;29;20421;-77
2022/11/22 10:57:40;;;;;;;4.68;1.20;;;9.20;99.90;;;;;;4891434;29;20052;-78
2022/11/22 11:00:19;;;;;;;5.38;1.40;;;9.20;99.90;;;;;;4894787;29;20040;-79
2022/11/22 11:03:04;;;;;;;5.32;1.13;;;9.30;99.90;;;;;;4895984;29;20048;-79
2022/11/22 11:05:49;;;;;;;2.33;0.80;;;9.40;99.90;;;;;;4897298;29;20065;-79
2022/11/22 11:08:45;;;;;;;3.95;0.98;;;9.50;99.90;;;;;;4896564;29;20049;-78
2022/11/22 11:11:33;;;;;;;1.60;0.80;;;9.50;99.90;;;;;;4897131;29;20060;-79
2022/11/22 11:14:07;;;;;;;2.85;0.75;;;9.50;99.90;;;;;;4898706;29;20135;-79
2022/11/22 11:16:37;;;;;;;1.90;0.77;;;9.50;99.90;;;;;;4897430;29;20498;-78
2022/11/22 11:19:18;;;;;;;3.05;0.88;;;9.40;99.90;;;;;;4891173;29;20068;-79
2022/11/22 11:22:05;;;;;;;3.97;1.00;;;9.40;99.90;;;;;;4898606;29;20067;-80
2022/11/22 11:24:34;;;;;;;3.97;0.90;;;9.40;99.90;;;;;;4895714;29;20054;-80
2022/11/22 11:27:01;;;;;;;3.57;0.90;;;9.40;99.90;;;;;;4902335;29;20139;-82
2022/11/22 11:29:52;;;;;;;5.38;1.25;;;9.40;99.90;;;;;;4901586;29;20136;-79
2022/11/22 11:32:20;;;;;;;2.70;0.82;;;9.50;99.90;;;;;;4899237;29;20112;-80
2022/11/22 11:35:04;;;;;;;4.20;0.90;;;9.50;99.90;;;;;;4902944;29;20044;-81
2022/11/22 11:37:35;;;;;;;3.60;0.80;;;9.60;99.90;;;;;;4892480;29;20051;-80
2022/11/22 11:40:04;;;;;;;1.73;1.00;;;9.60;99.90;;;;;;4895682;29;20064;-79
2022/11/22 11:42:33;;;;;;;2.70;0.80;;;9.70;99.90;;;;;;4897005;29;20040;-80
2022/11/22 11:45:27;;;;;;;3.45;1.23;;;9.70;99.90;;;;;;4892186;29;20057;-79
2022/11/22 11:47:54;;;;;;;2.63;0.55;;;9.80;99.90;;;;;;4895438;29;20062;-79
2022/11/22 11:50:26;;;;;;;2.55;0.90;;;9.80;99.90;;;;;;4894719;29;20055;-79
2022/11/22 11:53:04;;;;;;;2.97;0.65;;;9.80;99.90;;;;;;4896714;29;20052;-78
2022/11/22 11:55:34;;;;;;;1.52;0.93;;;9.90;99.90;;;;;;4896254;29;20487;-79
2022/11/22 11:58:09;;;;;;;2.17;0.70;;;9.90;99.90;;;;;;4894403;29;20052;-80
2022/11/22 12:00:41;;;;;;;1.92;1.05;;;9.90;99.90;;;;;;4893458;29;20451;-80
2022/11/22 12:03:13;;;;;;;1.27;0.60;;;9.90;99.90;;;;;;4890527;29;20056;-80
2022/11/22 12:05:40;;;;;;;2.22;0.70;;;9.90;99.90;;;;;;4897169;29;20056;-79
2022/11/22 12:08:29;;;;;;;3.22;1.25;;;9.90;99.90;;;;;;4891778;29;20487;-79
2022/11/22 12:11:07;;;;;;;4.90;1.50;;;9.90;99.90;;;;;;4890555;29;20053;-78
2022/11/22 12:13:44;;;;;;;2.42;1.10;;;9.90;99.90;;;;;;4893599;29;20055;-80
2022/11/22 12:16:36;;;;;;;2.30;0.80;;;10.00;99.90;;;;;;4892759;29;20049;-80
2022/11/22 12:19:14;;;;;;;3.00;1.30;;;9.90;99.90;;;;;;4893636;29;20453;-78
2022/11/22 12:22:00;;;;;;;4.95;1.70;;;9.90;99.90;;;;;;4897172;29;20048;-78
2022/11/22 12:24:47;;;;;;;5.60;1.88;;;10.00;99.90;;;;;;4896791;29;20060;-78
2022/11/22 12:27:34;;;;;;;6.07;2.50;;;10.00;99.90;;;;;;4893052;29;20574;-78
2022/11/22 12:30:01;;;;;;;6.47;3.05;;;10.10;99.90;;;;;;4892054;29;20061;-79
2022/11/22 12:32:39;;;;;;;3.63;1.70;;;10.10;99.90;;;;;;4891202;29;20067;-79
2022/11/22 12:35:22;;;;;;;3.83;1.20;;;10.10;99.90;;;;;;4893467;29;20116;-79
2022/11/22 12:38:17;;;;;;;0.80;0.60;;;10.10;99.90;;;;;;4905900;29;20049;-79
2022/11/22 12:40:51;;;;;;;2.78;0.73;;;10.10;99.90;;;;;;4896514;29;20051;-80
2022/11/22 12:43:25;;;;;;;1.05;0.57;;;10.10;99.90;;;;;;4891716;29;20510;-80
2022/11/22 12:45:56;;;;;;;3.67;1.00;;;10.20;99.90;;;;;;4893058;29;20101;-80
2022/11/22 12:48:32;;;;;;;2.97;1.05;;;10.20;99.90;;;;;;4899467;29;20498;-77
2022/11/22 12:51:10;;;;;;;3.10;0.90;;;10.10;99.90;;;;;;4894333;29;20057;-80
2022/11/22 12:53:41;;;;;;;1.85;0.60;;;10.20;99.90;;;;;;4890850;29;20628;-80
2022/11/22 12:56:08;;;;;;;1.30;0.50;;;10.10;99.90;;;;;;4893106;29;20104;-79
2022/11/22 12:58:38;;;;;;;2.83;0.82;;;10.10;99.90;;;;;;4888981;29;20045;-77
2022/11/22 13:01:32;;;;;;;5.20;0.70;;;10.10;99.90;;;;;;4893170;29;20054;-79
2022/11/22 13:04:12;;;;;;;1.85;0.88;;;10.10;99.90;;;;;;4891014;29;20407;-80
2022/11/22 13:06:52;;;;;;;4.38;1.20;;;10.10;99.90;;;;;;4890989;29;20056;-80
2022/11/22 13:09:27;;;;;;;3.92;0.90;;;10.10;99.90;;;;;;4889647;29;20057;-80
2022/11/22 13:11:57;;;;;;;2.30;0.77;;;10.10;99.90;;;;;;4892625;29;20533;-79
2022/11/22 13:14:37;;;;;;;2.97;0.80;;;10.20;99.90;;;;;;4889870;29;20049;-80
2022/11/22 13:17:08;;;;;;;5.30;0.90;;;10.20;99.90;;;;;;4890709;29;20051;-80
2022/11/22 13:19:49;;;;;;;7.05;1.40;;;10.30;99.90;;;;;;4890406;29;20162;-79
2022/11/22 13:22:34;;;;;;;4.60;0.93;;;10.30;99.90;;;;;;4890371;29;20504;-77
2022/11/22 13:25:01;;;;;;;2.60;0.80;;;10.30;99.90;;;;;;4889034;29;20144;-79
2022/11/22 13:27:40;;;;;;;3.58;1.00;;;10.20;99.90;;;;;;4891754;29;20057;-79
2022/11/22 13:30:18;;;;;;;2.33;0.85;;;10.20;99.90;;;;;;4889576;29;20068;-78
2022/11/22 13:32:49;;;;;;;4.07;1.30;;;10.10;99.90;;;;;;4890295;29;20135;-79
2022/11/22 13:35:20;;;;;;;4.03;1.00;;;10.10;99.90;;;;;;4891538;29;20061;-80
2022/11/22 13:37:56;;;;;;;2.72;1.15;;;10.10;99.90;;;;;;4888804;29;20111;-80
2022/11/22 13:40:43;;;;;;;5.60;1.30;;;10.00;99.90;;;;;;4892758;29;20157;-79
2022/11/22 13:43:12;;;;;;;4.25;1.27;;;10.00;99.90;;;;;;4888212;29;20049;-80
2022/11/22 13:45:59;;;;;;;4.68;1.10;;;10.00;99.90;;;;;;4890012;29;20054;-78
2022/11/22 13:48:38;;;;;;;6.30;1.33;;;10.00;99.90;;;;;;4890352;29;20430;-79
2022/11/22 13:51:12;;;;;;;4.57;1.02;;;9.90;99.90;;;;;;4892091;29;20053;-79
2022/11/22 13:53:44;;;;;;;4.35;1.10;;;9.90;99.90;;;;;;4893498;29;20060;-79
2022/11/22 13:56:19;;;;;;;1.33;1.10;;;9.90;99.90;;;;;;4890796;29;20048;-79
2022/11/22 13:58:46;;;;;;;5.72;1.35;;;9.90;99.90;;;;;;4891858;29;20052;-80
2022/11/22 14:01:33;;;;;;;3.20;0.88;;;9.80;99.90;;;;;;4892154;29;20132;-80
2022/11/22 14:04:15;;;;;;;5.13;1.15;;;9.80;99.90;;;;;;4892280;29;20057;-79
2022/11/22 14:07:08;;;;;;;4.72;0.80;;;9.80;99.90;;;;;;4890485;29;20119;-78
2022/11/22 14:09:52;;;;;;;3.58;1.00;;;9.70;99.90;;;;;;4893610;29;20112;-78
2022/11/22 14:12:49;;;;;;;3.05;0.80;;;9.70;99.90;;;;;;4893019;29;20135;-80
2022/11/22 14:15:25;;;;;;;4.28;1.00;;;9.70;99.90;;;;;;4892599;29;20128;-80
2022/11/22 14:18:15;;;;;;;5.30;1.13;;;9.70;99.90;;;;;;4892543;29;20052;-80
2022/11/22 14:21:02;;;;;;;3.97;0.85;;;9.70;99.90;;;;;;4892790;29;20061;-81
2022/11/22 14:23:48;;;;;;;5.60;0.98;;;9.70;99.90;;;;;;4892850;29;20513;-80
2022/11/22 14:26:32;;;;;;;4.53;1.00;;;9.70;99.90;;;;;;4891536;29;20052;-79
2022/11/22 14:29:36;;;;;;;6.10;1.95;;;9.70;99.90;;;;;;4891779;29;20136;-80
2022/11/22 14:32:21;;;;;;;4.93;1.80;;;9.70;99.90;;;;;;4893000;29;20092;-80
2022/11/22 14:35:03;;;;;;;6.35;1.70;;;9.70;99.90;;;;;;4892249;29;20057;-79
2022/11/22 14:37:32;;;;;;;3.42;1.20;;;9.60;99.90;;;;;;4891761;29;20051;-80
2022/11/22 14:40:06;;;;;;;3.92;1.42;;;9.70;99.90;;;;;;4893451;29;20049;-80
2022/11/22 14:45:07;;;;;;;2.40;0.90;;;9.70;99.90;;;;;;4893152;29;20430;-78
2022/11/22 14:47:35;;;;;;;4.70;1.10;;;9.70;99.90;;;;;;4899894;29;20048;-80
2022/11/22 14:50:08;;;;;;;6.05;1.20;;;9.70;99.90;;;;;;4897978;29;20053;-81
2022/11/22 14:52:35;;;;;;;3.67;1.00;;;9.60;99.90;;;;;;4892418;29;20148;-79
2022/11/22 14:55:07;;;;;;;3.90;0.98;;;9.60;99.90;;;;;;4893797;29;20056;-79
2022/11/22 14:57:36;;;;;;;7.78;1.90;;;9.60;99.90;;;;;;4890176;29;20059;-81
2022/11/22 15:00:47;;;;;;;2.15;1.23;;;9.60;99.90;;;;;;4893407;29;20072;-79
2022/11/22 15:03:44;;;;;;;9.27;1.60;;;9.60;99.90;;;;;;4894466;29;20135;-80
2022/11/22 15:06:23;;;;;;;10.27;1.55;;;9.60;99.90;;;;;;4892082;29;20461;-80
2022/11/22 15:09:37;;;;;;;4.35;1.60;;;9.60;99.90;;;;;;4891933;29;20048;-79
2022/11/22 15:12:45;;;;;;;6.80;1.77;;;9.60;99.90;;;;;;4893763;29;20057;-80
2022/11/22 15:15:23;;;;;;;4.07;1.13;;;9.60;99.90;;;;;;4892693;29;20052;-80
2022/11/22 15:18:42;;;;;;;8.00;1.52;;;9.60;99.90;;;;;;4895418;29;20419;-80
2022/11/22 15:21:32;;;;;;;7.07;1.52;;;9.60;99.90;;;;;;4884169;29;20067;-80
2022/11/22 15:24:30;;;;;;;7.93;1.80;;;9.50;99.90;;;;;;4892547;29;20057;-79
2022/11/22 15:27:42;;;;;;;8.90;1.55;;;9.60;99.90;;;;;;4893564;29;20057;-80
2022/11/22 15:30:29;;;;;;;8.05;1.80;;;9.60;99.90;;;;;;4891532;29;20049;-79
2022/11/22 15:33:25;;;;;;;4.78;1.10;;;9.60;99.90;;;;;;4893225;29;20049;-79
2022/11/22 15:36:49;;;;;;;6.85;1.42;;;9.60;99.90;;;;;;4894900;29;20046;-80
2022/11/22 15:39:37;;;;;;;9.20;1.80;;;9.60;99.90;;;;;;4895498;29;20056;-80
2022/11/22 15:42:24;;;;;;;6.68;1.20;;;9.50;99.90;;;;;;4893653;29;20419;-81
2022/11/22 15:45:13;;;;;;;4.68;1.42;;;9.50;99.90;;;;;;4892401;29;20049;-79
2022/11/22 15:48:03;;;;;;;5.78;1.80;;;9.60;99.90;;;;;;4893844;29;20139;-79
2022/11/22 15:51:08;;;;;;;5.60;1.67;;;9.60;99.90;;;;;;4895158;29;20068;-80
2022/11/22 15:54:03;;;;;;;5.32;1.98;;;9.50;99.90;;;;;;4892818;29;20063;-81
2022/11/22 15:57:00;;;;;;;7.25;1.65;;;9.40;99.90;;;;;;4904710;29;20049;-78
2022/11/22 15:59:41;;;;;;;3.08;1.50;;;9.50;99.90;;;;;;4894386;29;20057;-80
2022/11/22 16:02:14;;;;;;;6.88;1.52;;;9.50;99.90;;;;;;4893825;29;20080;-80
2022/11/22 16:04:55;;;;;;;5.03;1.10;;;9.40;99.90;;;;;;4891708;29;20056;-79
2022/11/22 16:07:47;;;;;;;5.07;1.48;;;9.40;99.90;;;;;;4892976;29;20068;-77
2022/11/22 16:10:19;;;;;;;3.85;1.30;;;9.40;99.90;;;;;;4893121;29;20049;-81
2022/11/22 16:12:46;;;;;;;2.55;1.15;;;9.30;99.90;;;;;;4894029;29;20162;-80
2022/11/22 16:15:34;;;;;;;10.48;1.85;;;9.40;99.90;;;;;;4893179;29;20442;-80
2022/11/22 16:18:22;;;;;;;4.82;1.30;;;9.30;99.90;;;;;;4892910;29;20056;-80
2022/11/22 16:20:59;;;;;;;5.80;1.95;;;9.30;99.90;;;;;;4892016;29;20467;-80
2022/11/22 16:23:36;;;;;;;5.90;1.38;;;9.30;99.90;;;;;;4893185;29;20055;-79
2022/11/22 16:26:28;;;;;;;8.23;3.03;;;9.30;99.90;;;;;;4893964;29;20060;-80
2022/11/22 16:29:09;;;;;;;7.53;2.17;;;9.30;99.90;;;;;;4893611;29;20053;-80
2022/11/22 16:31:38;;;;;;;6.93;1.90;;;9.30;99.90;;;;;;4892767;29;20052;-80
2022/11/22 16:34:13;;;;;;;6.00;1.75;;;9.30;99.90;;;;;;4895916;29;20061;-81
2022/11/22 16:36:40;;;;;;;8.00;1.40;;;9.30;99.90;;;;;;4893481;29;20052;-80
2022/11/22 16:39:06;;;;;;;5.63;1.58;;;9.30;99.90;;;;;;4892967;29;20463;-79
2022/11/22 16:41:34;;;;;;;6.90;2.03;;;9.30;99.90;;;;;;4893640;29;20503;-81
2022/11/22 16:44:05;;;;;;;6.20;1.45;;;9.30;99.90;;;;;;4895811;29;20057;-80
2022/11/22 16:46:32;;;;;;;6.40;1.73;;;9.30;99.90;;;;;;4894189;29;20418;-81
2022/11/22 16:48:58;;;;;;;6.00;1.42;;;9.30;99.90;;;;;;4893543;29;20060;-78
2022/11/22 16:51:28;;;;;;;5.80;1.30;;;9.20;99.90;;;;;;4892560;29;20140;-80
2022/11/22 16:54:04;;;;;;;6.57;1.50;;;9.20;99.90;;;;;;4892618;29;20052;-80
2022/11/22 16:56:32;;;;;;;8.63;1.58;;;9.20;99.90;;;;;;4894517;29;20056;-80
2022/11/22 16:58:58;;;;;;;6.35;1.95;;;9.20;99.90;;;;;;4890738;29;20057;-78
2022/11/22 17:01:31;;;;;;;6.13;1.90;;;9.20;99.90;;;;;;4896025;29;20048;-80
2022/11/22 17:04:00;;;;;;;5.07;2.10;;;9.30;99.90;;;;;;4883410;29;20045;-80
2022/11/22 17:06:29;;;;;;;7.28;1.70;;;9.20;99.90;;;;;;4883630;29;20063;-79
2022/11/22 17:08:57;;;;;;;6.88;1.67;;;9.20;99.90;;;;;;4883181;29;20057;-80
2022/11/22 17:11:26;;;;;;;4.68;1.30;;;9.20;99.90;;;;;;4890120;29;20065;-80
2022/11/22 17:13:53;;;;;;;5.00;1.55;;;9.20;99.90;;;;;;4890490;29;20510;-79
2022/11/22 17:16:20;;;;;;;4.75;1.45;;;9.20;99.90;;;;;;4893048;29;20058;-79
2022/11/22 17:18:46;;;;;;;7.60;1.67;;;9.20;99.90;;;;;;4892124;29;20048;-76
2022/11/22 17:21:23;;;;;;;3.15;1.30;;;9.10;99.90;;;;;;4883457;29;20053;-78
2022/11/22 17:23:50;;;;;;;3.40;1.20;;;9.10;99.90;;;;;;4881951;29;20063;-79
2022/11/22 17:26:17;;;;;;;10.35;4.03;;;9.10;99.90;;;;;;4891833;29;20116;-78
2022/11/22 17:28:43;;;;;;;11.95;3.60;;;9.10;99.90;;;;;;4888014;29;20051;-78
2022/11/22 17:31:13;;;;;;;4.43;2.05;;;9.10;99.90;;;;;;4887824;29;20053;-79
2022/11/22 17:33:40;;;;;;;5.47;1.50;;;9.10;99.90;;;;;;4892701;29;20044;-78
2022/11/22 17:36:28;;;;;;;5.25;1.40;;;9.10;99.90;;;;;;4886058;29;20810;-77
2022/11/22 17:38:55;;;;;;;7.72;1.20;;;9.10;99.90;;;;;;4887462;29;20044;-76
2022/11/22 17:41:23;;;;;;;6.55;1.45;;;9.10;99.90;;;;;;4888565;29;20044;-79
2022/11/22 17:43:50;;;;;;;5.68;1.60;;;9.10;99.90;;;;;;4891460;29;20430;-78
2022/11/22 17:46:18;;;;;;;7.47;1.42;;;9.10;99.90;;;;;;4892628;29;20051;-79
2022/11/22 17:48:52;;;;;;;6.50;1.92;;;9.10;99.90;;;;;;4896332;29;20055;-79
2022/11/22 17:51:19;;;;;;;8.00;2.58;;;9.10;99.90;;;;;;4892965;29;20049;-77
2022/11/22 17:53:46;;;;;;;8.20;2.50;;;9.10;99.90;;;;;;4889048;29;20051;-79
2022/11/22 17:56:13;;;;;;;6.10;2.05;;;9.10;99.90;;;;;;4887339;29;20129;-80
2022/11/22 17:58:40;;;;;;;8.13;2.63;;;9.10;99.90;;;;;;4893285;29;20105;-79
2022/11/22 18:01:08;;;;;;;5.10;1.38;;;9.10;99.90;;;;;;4896228;29;20533;-78
2022/11/22 18:03:35;;;;;;;5.53;2.10;;;9.10;99.90;;;;;;4892595;29;20041;-78
2022/11/22 18:06:02;;;;;;;4.57;1.20;;;9.10;99.90;;;;;;4893265;29;20273;-78
2022/11/22 18:08:29;;;;;;;9.90;2.42;;;9.10;99.90;;;;;;4890977;29;20473;-76
2022/11/22 18:11:00;;;;;;;5.10;1.70;;;9.10;99.90;;;;;;4896097;29;20057;-78
2022/11/22 18:13:29;;;;;;;5.55;1.17;;;9.10;99.90;;;;;;4888718;29;20059;-79
2022/11/22 18:15:58;;;;;;;6.28;1.17;;;9.10;99.90;;;;;;4889259;29;20055;-77
2022/11/22 18:18:29;;;;;;;4.45;1.13;;;9.10;99.90;;;;;;4890947;29;20053;-77
2022/11/22 18:21:16;;;;;;;9.82;1.48;;;9.10;99.90;;;;;;4892551;29;20049;-79
2022/11/22 18:23:44;;;;;;;5.07;1.10;;;9.10;99.90;;;;;;4894645;29;20044;-79
2022/11/22 18:26:11;;;;;;;5.38;1.27;;;9.10;99.90;;;;;;4893628;29;20505;-80
2022/11/22 18:28:58;;;;;;;5.15;1.30;;;9.10;99.90;;;;;;4894776;29;20056;-77
2022/11/22 18:31:45;;;;;;;9.45;1.95;;;9.00;99.90;;;;;;4890657;29;20056;-78
2022/11/22 18:34:23;;;;;;;3.20;1.08;;;9.00;99.90;;;;;;4890804;29;20084;-80
2022/11/22 18:36:50;;;;;;;6.22;1.10;;;9.00;99.90;;;;;;4890487;29;20140;-77
2022/11/22 18:43:41;;;;;;;5.18;1.20;;;8.90;99.90;;;;;;4850778;29;20146;-79
2022/11/22 18:46:08;;;;;;;4.88;1.30;;;8.90;99.90;;;;;;4852492;29;20060;-79
2022/11/22 18:48:37;;;;;;;4.93;1.50;;;8.80;99.90;;;;;;4928603;28;20058;-79
2022/11/22 18:51:09;;;;;;;6.40;2.90;;;8.80;99.90;;;;;;4961882;28;20539;-79
2022/11/22 18:53:38;;;;;;;6.38;2.20;;;8.80;99.90;;;;;;4970301;28;20049;-80
2022/11/22 18:56:10;;;;;;;6.50;2.28;;;8.80;99.90;;;;;;4956919;28;20130;-81
2022/11/22 19:01:20;;;;;;;8.38;2.30;;;8.90;99.90;;;;;;4966641;23;20055;-80
2022/11/22 19:03:47;;;;;;;9.20;4.18;;;8.80;99.90;;;;;;4953138;29;20050;-78
2022/11/22 19:06:16;;;;;;;6.35;1.73;;;8.80;99.90;;;;;;4950871;28;20050;-78
2022/11/22 19:08:44;;;;;;;22.02;17.17;;;8.80;99.90;;;;;;4952596;28;20058;-78
2022/11/22 19:11:11;;;;;;;7.88;3.95;;;8.80;99.90;;;;;;4937223;29;20052;-78
2022/11/22 19:13:39;;;;;;;5.55;1.65;;;8.80;99.90;;;;;;4956099;28;20055;-78
2022/11/22 19:16:20;;;;;;;7.85;1.73;;;8.80;99.90;;;;;;4938454;29;20581;-78
2022/11/22 19:18:48;;;;;;;3.95;1.80;;;8.80;99.90;;;;;;4937672;29;20040;-79
2022/11/22 19:21:18;;;;;;;6.97;1.80;;;8.80;99.90;;;;;;4954039;28;20138;-78
2022/11/22 19:23:45;;;;;;;7.40;2.38;;;8.80;99.90;;;;;;4956784;28;20051;-79
2022/11/22 19:26:19;;;;;;;7.70;2.63;;;8.80;99.90;;;;;;4946213;29;20471;-78
2022/11/22 19:28:53;;;;;;;7.88;2.50;;;8.90;99.90;;;;;;4935715;29;20540;-79
2022/11/22 19:31:22;;;;;;;8.93;2.03;;;8.90;99.90;;;;;;4953803;28;20047;-77
2022/11/22 19:33:49;;;;;;;4.50;1.85;;;8.80;99.90;;;;;;4933820;29;20134;-77
2022/11/22 19:36:18;;;;;;;9.43;1.75;;;8.80;99.90;;;;;;4956225;28;20047;-77
2022/11/22 19:38:45;;;;;;;4.95;1.88;;;8.80;99.90;;;;;;4952706;28;20049;-77
2022/11/22 19:41:15;;;;;;;3.38;1.30;;;8.70;99.90;;;;;;4953595;29;20499;-78
2022/11/22 19:43:42;;;;;;;7.13;1.33;;;8.70;99.90;;;;;;4941090;29;20054;-79
2022/11/22 19:46:10;;;;;;;4.47;1.20;;;8.70;99.90;;;;;;4955949;29;20102;-77
2022/11/22 19:48:36;;;;;;;5.38;1.10;;;8.70;99.90;;;;;;4940789;29;20433;-77
2022/11/22 19:51:13;;;;;;;7.68;1.40;;;8.70;99.90;;;;;;4942530;29;20055;-78
2022/11/22 19:53:43;;;;;;;6.25;1.10;;;8.70;99.90;;;;;;4952415;29;20126;-77
2022/11/22 19:56:12;;;;;;;3.72;1.52;;;8.70;99.90;;;;;;4948713;28;20051;-79
2022/11/22 19:58:39;;;;;;;2.15;1.05;;;8.70;99.90;;;;;;4956521;28;20044;-78
2022/11/22 20:01:08;;;;;;;8.55;2.08;;;8.70;99.90;;;;;;4951603;29;20093;-79
2022/11/22 20:03:37;;;;;;;4.07;1.30;;;8.60;99.90;;;;;;4939311;29;20052;-76
2022/11/22 20:06:06;;;;;;;2.70;1.23;;;8.60;99.90;;;;;;4952670;29;20050;-78
2022/11/22 20:08:33;;;;;;;4.43;1.45;;;8.60;99.90;;;;;;4948922;29;20054;-78
2022/11/22 20:11:05;;;;;;;6.00;1.27;;;8.60;99.90;;;;;;4948908;29;20063;-78
2022/11/22 20:13:35;;;;;;;3.65;1.10;;;8.60;99.90;;;;;;4935301;29;20523;-79
2022/11/22 20:16:22;;;;;;;5.70;1.92;;;8.60;99.90;;;;;;4949878;29;20145;-79
2022/11/22 20:18:56;;;;;;;7.50;1.40;;;8.60;99.90;;;;;;4949767;29;20044;-76
2022/11/22 20:21:24;;;;;;;8.88;2.35;;;8.60;99.90;;;;;;4953674;29;20079;-78
2022/11/22 20:23:52;;;;;;;6.22;1.40;;;8.60;99.90;;;;;;4949438;28;20126;-79
2022/11/22 20:26:20;;;;;;;5.45;1.75;;;8.60;99.90;;;;;;4950092;29;20051;-79
2022/11/22 20:28:57;;;;;;;6.32;1.15;;;8.60;99.90;;;;;;4952609;29;20066;-78
2022/11/22 20:31:24;;;;;;;6.80;1.80;;;8.60;99.90;;;;;;4949924;28;20047;-78
2022/11/22 20:33:52;;;;;;;6.18;1.45;;;8.60;99.90;;;;;;4939403;29;20432;-78
2022/11/22 20:36:24;;;;;;;3.53;1.30;;;8.50;99.90;;;;;;4950816;29;20047;-78
2022/11/22 20:38:52;;;;;;;5.38;1.50;;;8.50;99.90;;;;;;4947085;29;20048;-77
2022/11/22 20:41:21;;;;;;;9.63;1.80;;;8.60;99.90;;;;;;4950321;29;20055;-79
2022/11/22 20:43:48;;;;;;;2.78;1.60;;;8.50;99.90;;;;;;4947038;29;20134;-76
2022/11/22 20:46:17;;;;;;;2.47;1.20;;;8.50;99.90;;;;;;4950412;29;20047;-78
2022/11/22 20:48:45;;;;;;;3.67;1.13;;;8.50;99.90;;;;;;4947080;29;20054;-78
2022/11/22 20:51:15;;;;;;;4.22;1.52;;;8.50;99.90;;;;;;4949898;29;20130;-79
2022/11/22 20:53:42;;;;;;;3.53;1.02;;;8.50;99.90;;;;;;4951211;29;20143;-79
2022/11/22 20:56:10;;;;;;;5.20;1.40;;;8.50;99.90;;;;;;4946887;28;20058;-80
2022/11/22 20:58:38;;;;;;;3.03;1.17;;;8.50;99.90;;;;;;4948552;29;20083;-79
2022/11/22 21:01:11;;;;;;;7.05;1.33;;;8.60;99.90;;;;;;4949685;29;20086;-78
2022/11/22 21:03:38;;;;;;;2.65;1.25;;;8.60;99.90;;;;;;4949551;28;20112;-78
2022/11/22 21:06:05;;;;;;;5.38;1.27;;;8.60;99.90;;;;;;4948458;28;20051;-79
2022/11/22 21:08:32;;;;;;;7.22;1.40;;;8.60;99.90;;;;;;4948828;29;20118;-78
2022/11/22 21:11:04;;;;;;;3.67;1.67;;;8.60;99.90;;;;;;4947307;29;20058;-78
